Weather at Barcelona International Airport

Public forecast

Using degrees Celsius for public forecast. Weather courtesy of forecast.io.

Current aviation weather report (METAR) for Barcelona International Airport

Retrieved 2021/04/20 22:00 UTC (17 minutes ago):

LEBL 202200Z 06007KT 9999 FEW020 SCT055 14/12 Q1014 NOSIG

Aviation forecast (TAF) for Barcelona International Airport

Retrieved 2021/04/20 18:27 UTC (4 hours ago):

TAF LEBL 201700Z 2018/2118 04008KT 9999 SCT018 TX16/2112Z TN11/2105Z PROB30 TEMPO 2018/2024 4000 RA SHRA FEW025TCU TEMPO 2100/2112 4000 SHRA FEW020TCU PROB30 TEMPO 2100/2112 3000 TSRA FEW020CB